sensor_id;sensor_type;location;lat;lon;timestamp;P1;durP1;ratioP1;P2;durP2;ratioP2
13404;SDS011;6773;51.192;7.024;2023-02-02T00:02:03;12.33;;;4.40;;
13404;SDS011;6773;51.192;7.024;2023-02-02T00:04:30;11.67;;;4.30;;
13404;SDS011;6773;51.192;7.024;2023-02-02T00:06:58;13.10;;;4.33;;
13404;SDS011;6773;51.192;7.024;2023-02-02T00:09:25;12.83;;;4.43;;
13404;SDS011;6773;51.192;7.024;2023-02-02T00:11:55;13.33;;;4.33;;
13404;SDS011;6773;51.192;7.024;2023-02-02T00:14:21;12.93;;;4.10;;
13404;SDS011;6773;51.192;7.024;2023-02-02T00:16:51;9.13;;;3.50;;
13404;SDS011;6773;51.192;7.024;2023-02-02T00:21:45;14.23;;;4.43;;
13404;SDS011;6773;51.192;7.024;2023-02-02T00:24:12;15.10;;;4.80;;
13404;SDS011;6773;51.192;7.024;2023-02-02T00:26:42;11.47;;;4.20;;
13404;SDS011;6773;51.192;7.024;2023-02-02T00:29:13;12.57;;;5.00;;
13404;SDS011;6773;51.192;7.024;2023-02-02T00:31:41;11.93;;;5.13;;
13404;SDS011;6773;51.192;7.024;2023-02-02T00:34:06;18.03;;;5.20;;
13404;SDS011;6773;51.192;7.024;2023-02-02T00:36:33;13.57;;;4.67;;
13404;SDS011;6773;51.192;7.024;2023-02-02T00:38:59;13.57;;;4.33;;
13404;SDS011;6773;51.192;7.024;2023-02-02T00:41:25;14.50;;;5.27;;
13404;SDS011;6773;51.192;7.024;2023-02-02T00:43:50;17.10;;;5.53;;
13404;SDS011;6773;51.192;7.024;2023-02-02T00:46:37;17.03;;;4.70;;
13404;SDS011;6773;51.192;7.024;2023-02-02T00:49:04;14.60;;;5.10;;
13404;SDS011;6773;51.192;7.024;2023-02-02T00:51:30;16.70;;;5.23;;
13404;SDS011;6773;51.192;7.024;2023-02-02T00:53:56;17.13;;;4.97;;
13404;SDS011;6773;51.192;7.024;2023-02-02T00:56:22;23.33;;;6.80;;
13404;SDS011;6773;51.192;7.024;2023-02-02T00:58:47;16.90;;;5.40;;
13404;SDS011;6773;51.192;7.024;2023-02-02T01:01:14;17.73;;;5.97;;
13404;SDS011;6773;51.192;7.024;2023-02-02T01:03:41;13.67;;;5.33;;
13404;SDS011;6773;51.192;7.024;2023-02-02T01:06:06;16.77;;;6.00;;
13404;SDS011;6773;51.192;7.024;2023-02-02T01:08:32;21.13;;;5.03;;
13404;SDS011;6773;51.192;7.024;2023-02-02T01:10:58;16.70;;;5.47;;
13404;SDS011;6773;51.192;7.024;2023-02-02T01:13:24;14.93;;;6.43;;
13404;SDS011;6773;51.192;7.024;2023-02-02T01:15:54;16.77;;;5.00;;
13404;SDS011;6773;51.192;7.024;2023-02-02T01:18:20;17.03;;;4.97;;
13404;SDS011;6773;51.192;7.024;2023-02-02T01:20:46;11.10;;;4.73;;
13404;SDS011;6773;51.192;7.024;2023-02-02T01:23:12;12.03;;;4.57;;
13404;SDS011;6773;51.192;7.024;2023-02-02T01:25:38;17.07;;;4.43;;
13404;SDS011;6773;51.192;7.024;2023-02-02T01:28:04;17.43;;;6.13;;
13404;SDS011;6773;51.192;7.024;2023-02-02T01:30:29;14.57;;;6.13;;
13404;SDS011;6773;51.192;7.024;2023-02-02T01:32:55;9.33;;;4.40;;
13404;SDS011;6773;51.192;7.024;2023-02-02T01:35:21;11.87;;;4.80;;
13404;SDS011;6773;51.192;7.024;2023-02-02T01:37:47;11.70;;;4.90;;
13404;SDS011;6773;51.192;7.024;2023-02-02T01:40:12;16.90;;;3.77;;
13404;SDS011;6773;51.192;7.024;2023-02-02T01:42:38;9.67;;;4.83;;
13404;SDS011;6773;51.192;7.024;2023-02-02T01:47:48;15.60;;;4.83;;
13404;SDS011;6773;51.192;7.024;2023-02-02T01:50:18;14.27;;;5.00;;
13404;SDS011;6773;51.192;7.024;2023-02-02T01:52:48;15.07;;;5.20;;
13404;SDS011;6773;51.192;7.024;2023-02-02T01:55:16;11.87;;;4.07;;
13404;SDS011;6773;51.192;7.024;2023-02-02T01:57:48;20.40;;;5.33;;
13404;SDS011;6773;51.192;7.024;2023-02-02T02:00:21;11.43;;;4.47;;
13404;SDS011;6773;51.192;7.024;2023-02-02T02:02:51;14.07;;;4.80;;
13404;SDS011;6773;51.192;7.024;2023-02-02T02:05:30;11.63;;;4.47;;
13404;SDS011;6773;51.192;7.024;2023-02-02T02:08:18;20.80;;;5.43;;
13404;SDS011;6773;51.192;7.024;2023-02-02T02:10:52;10.83;;;4.43;;
13404;SDS011;6773;51.192;7.024;2023-02-02T02:13:19;16.87;;;4.73;;
13404;SDS011;6773;51.192;7.024;2023-02-02T02:16:11;19.87;;;4.63;;
13404;SDS011;6773;51.192;7.024;2023-02-02T02:18:50;14.07;;;4.23;;
13404;SDS011;6773;51.192;7.024;2023-02-02T02:21:24;15.17;;;5.30;;
13404;SDS011;6773;51.192;7.024;2023-02-02T02:33:24;13.43;;;4.83;;
13404;SDS011;6773;51.192;7.024;2023-02-02T02:36:11;22.77;;;5.33;;
13404;SDS011;6773;51.192;7.024;2023-02-02T02:38:49;18.57;;;5.20;;
13404;SDS011;6773;51.192;7.024;2023-02-02T02:41:21;16.47;;;5.67;;
13404;SDS011;6773;51.192;7.024;2023-02-02T02:43:56;12.17;;;5.30;;
13404;SDS011;6773;51.192;7.024;2023-02-02T02:46:25;15.20;;;5.37;;
13404;SDS011;6773;51.192;7.024;2023-02-02T02:48:52;18.77;;;5.87;;
13404;SDS011;6773;51.192;7.024;2023-02-02T02:54:21;17.20;;;6.77;;
13404;SDS011;6773;51.192;7.024;2023-02-02T03:02:37;21.00;;;7.50;;
13404;SDS011;6773;51.192;7.024;2023-02-02T03:08:16;20.03;;;7.00;;
13404;SDS011;6773;51.192;7.024;2023-02-02T03:10:48;18.20;;;8.03;;
13404;SDS011;6773;51.192;7.024;2023-02-02T03:13:15;23.57;;;7.73;;
13404;SDS011;6773;51.192;7.024;2023-02-02T03:15:41;20.07;;;7.10;;
13404;SDS011;6773;51.192;7.024;2023-02-02T03:18:08;23.57;;;8.00;;
13404;SDS011;6773;51.192;7.024;2023-02-02T03:20:34;14.50;;;7.30;;
13404;SDS011;6773;51.192;7.024;2023-02-02T03:23:00;25.77;;;7.67;;
13404;SDS011;6773;51.192;7.024;2023-02-02T03:25:25;18.97;;;6.80;;
13404;SDS011;6773;51.192;7.024;2023-02-02T03:27:51;20.00;;;7.83;;
13404;SDS011;6773;51.192;7.024;2023-02-02T03:30:17;20.40;;;7.53;;
13404;SDS011;6773;51.192;7.024;2023-02-02T03:32:43;17.47;;;5.57;;
13404;SDS011;6773;51.192;7.024;2023-02-02T03:35:10;18.33;;;6.97;;
13404;SDS011;6773;51.192;7.024;2023-02-02T03:37:36;24.97;;;7.50;;
13404;SDS011;6773;51.192;7.024;2023-02-02T03:40:02;20.73;;;7.40;;
13404;SDS011;6773;51.192;7.024;2023-02-02T03:42:28;16.00;;;6.67;;
13404;SDS011;6773;51.192;7.024;2023-02-02T03:44:54;17.33;;;6.50;;
13404;SDS011;6773;51.192;7.024;2023-02-02T03:47:20;16.90;;;5.47;;
13404;SDS011;6773;51.192;7.024;2023-02-02T03:49:45;17.70;;;6.83;;
13404;SDS011;6773;51.192;7.024;2023-02-02T03:52:11;22.77;;;7.47;;
13404;SDS011;6773;51.192;7.024;2023-02-02T03:54:37;13.10;;;6.67;;
13404;SDS011;6773;51.192;7.024;2023-02-02T03:57:03;19.27;;;6.23;;
13404;SDS011;6773;51.192;7.024;2023-02-02T03:59:28;21.93;;;6.90;;
13404;SDS011;6773;51.192;7.024;2023-02-02T04:01:54;22.80;;;7.67;;
13404;SDS011;6773;51.192;7.024;2023-02-02T04:04:20;19.93;;;8.37;;
13404;SDS011;6773;51.192;7.024;2023-02-02T04:06:46;17.77;;;7.20;;
13404;SDS011;6773;51.192;7.024;2023-02-02T04:09:11;26.00;;;6.13;;
13404;SDS011;6773;51.192;7.024;2023-02-02T04:11:37;20.83;;;6.97;;
13404;SDS011;6773;51.192;7.024;2023-02-02T04:14:03;25.23;;;6.73;;
13404;SDS011;6773;51.192;7.024;2023-02-02T04:16:28;18.60;;;6.90;;
13404;SDS011;6773;51.192;7.024;2023-02-02T04:18:58;25.67;;;7.43;;
13404;SDS011;6773;51.192;7.024;2023-02-02T04:21:24;22.27;;;7.37;;
13404;SDS011;6773;51.192;7.024;2023-02-02T04:23:50;25.13;;;8.57;;
13404;SDS011;6773;51.192;7.024;2023-02-02T04:26:15;20.77;;;8.00;;
13404;SDS011;6773;51.192;7.024;2023-02-02T04:28:41;16.47;;;5.83;;
13404;SDS011;6773;51.192;7.024;2023-02-02T04:31:06;25.00;;;7.60;;
13404;SDS011;6773;51.192;7.024;2023-02-02T04:33:32;28.13;;;8.03;;
13404;SDS011;6773;51.192;7.024;2023-02-02T04:35:59;20.70;;;6.50;;
13404;SDS011;6773;51.192;7.024;2023-02-02T04:38:25;23.37;;;7.93;;
13404;SDS011;6773;51.192;7.024;2023-02-02T04:40:50;22.00;;;6.93;;
13404;SDS011;6773;51.192;7.024;2023-02-02T04:43:16;23.23;;;6.23;;
13404;SDS011;6773;51.192;7.024;2023-02-02T04:45:41;33.43;;;7.93;;
13404;SDS011;6773;51.192;7.024;2023-02-02T04:48:08;21.17;;;7.67;;
13404;SDS011;6773;51.192;7.024;2023-02-02T04:50:33;20.27;;;7.13;;
13404;SDS011;6773;51.192;7.024;2023-02-02T04:52:59;28.67;;;8.97;;
13404;SDS011;6773;51.192;7.024;2023-02-02T04:55:24;22.20;;;7.23;;
13404;SDS011;6773;51.192;7.024;2023-02-02T04:57:50;20.43;;;7.60;;
13404;SDS011;6773;51.192;7.024;2023-02-02T05:00:16;15.03;;;6.17;;
13404;SDS011;6773;51.192;7.024;2023-02-02T05:02:42;24.90;;;6.40;;
13404;SDS011;6773;51.192;7.024;2023-02-02T05:05:09;17.73;;;5.67;;
13404;SDS011;6773;51.192;7.024;2023-02-02T05:07:37;22.23;;;6.63;;
13404;SDS011;6773;51.192;7.024;2023-02-02T05:10:04;17.10;;;6.33;;
13404;SDS011;6773;51.192;7.024;2023-02-02T05:12:30;18.40;;;7.20;;
13404;SDS011;6773;51.192;7.024;2023-02-02T05:14:57;20.93;;;7.17;;
13404;SDS011;6773;51.192;7.024;2023-02-02T05:17:25;17.23;;;6.73;;
13404;SDS011;6773;51.192;7.024;2023-02-02T05:19:51;14.57;;;6.07;;
13404;SDS011;6773;51.192;7.024;2023-02-02T05:22:16;25.93;;;8.33;;
13404;SDS011;6773;51.192;7.024;2023-02-02T05:24:42;23.43;;;6.83;;
13404;SDS011;6773;51.192;7.024;2023-02-02T05:27:07;24.20;;;6.40;;
13404;SDS011;6773;51.192;7.024;2023-02-02T05:29:33;21.07;;;7.10;;
13404;SDS011;6773;51.192;7.024;2023-02-02T05:32:08;22.20;;;6.83;;
13404;SDS011;6773;51.192;7.024;2023-02-02T05:34:34;20.43;;;7.57;;
13404;SDS011;6773;51.192;7.024;2023-02-02T05:37:00;24.70;;;8.30;;
13404;SDS011;6773;51.192;7.024;2023-02-02T05:39:26;21.47;;;6.20;;
13404;SDS011;6773;51.192;7.024;2023-02-02T05:41:51;20.17;;;6.57;;
13404;SDS011;6773;51.192;7.024;2023-02-02T05:44:17;21.17;;;6.83;;
13404;SDS011;6773;51.192;7.024;2023-02-02T05:46:43;16.10;;;6.17;;
13404;SDS011;6773;51.192;7.024;2023-02-02T05:49:12;22.63;;;7.83;;
13404;SDS011;6773;51.192;7.024;2023-02-02T05:51:49;23.17;;;7.13;;
13404;SDS011;6773;51.192;7.024;2023-02-02T05:54:17;21.17;;;7.90;;
13404;SDS011;6773;51.192;7.024;2023-02-02T05:56:48;25.87;;;6.63;;
13404;SDS011;6773;51.192;7.024;2023-02-02T05:59:14;21.00;;;7.70;;
13404;SDS011;6773;51.192;7.024;2023-02-02T06:01:41;21.83;;;7.83;;
13404;SDS011;6773;51.192;7.024;2023-02-02T06:04:07;22.97;;;8.00;;
13404;SDS011;6773;51.192;7.024;2023-02-02T06:06:33;27.17;;;9.33;;
13404;SDS011;6773;51.192;7.024;2023-02-02T06:09:00;19.33;;;7.77;;
13404;SDS011;6773;51.192;7.024;2023-02-02T06:11:26;29.93;;;9.33;;
13404;SDS011;6773;51.192;7.024;2023-02-02T06:13:51;18.50;;;7.63;;
13404;SDS011;6773;51.192;7.024;2023-02-02T06:16:17;19.20;;;7.83;;
13404;SDS011;6773;51.192;7.024;2023-02-02T06:18:43;19.03;;;8.27;;
13404;SDS011;6773;51.192;7.024;2023-02-02T06:21:09;24.90;;;8.83;;
13404;SDS011;6773;51.192;7.024;2023-02-02T06:23:35;23.27;;;8.27;;
13404;SDS011;6773;51.192;7.024;2023-02-02T06:26:00;26.00;;;9.13;;
13404;SDS011;6773;51.192;7.024;2023-02-02T06:28:27;24.00;;;8.17;;
13404;SDS011;6773;51.192;7.024;2023-02-02T06:31:01;25.20;;;8.73;;
13404;SDS011;6773;51.192;7.024;2023-02-02T06:33:28;28.70;;;8.77;;
13404;SDS011;6773;51.192;7.024;2023-02-02T06:35:57;16.17;;;7.57;;
13404;SDS011;6773;51.192;7.024;2023-02-02T06:38:24;21.63;;;8.93;;
13404;SDS011;6773;51.192;7.024;2023-02-02T06:40:50;17.73;;;7.70;;
13404;SDS011;6773;51.192;7.024;2023-02-02T06:43:16;22.30;;;7.87;;
13404;SDS011;6773;51.192;7.024;2023-02-02T06:45:43;22.03;;;7.67;;
13404;SDS011;6773;51.192;7.024;2023-02-02T06:48:09;22.60;;;9.93;;
13404;SDS011;6773;51.192;7.024;2023-02-02T06:50:38;26.70;;;12.07;;
13404;SDS011;6773;51.192;7.024;2023-02-02T06:53:04;24.77;;;10.20;;
13404;SDS011;6773;51.192;7.024;2023-02-02T06:55:30;23.80;;;9.33;;
13404;SDS011;6773;51.192;7.024;2023-02-02T06:57:56;24.57;;;11.57;;
13404;SDS011;6773;51.192;7.024;2023-02-02T07:00:22;19.40;;;7.33;;
13404;SDS011;6773;51.192;7.024;2023-02-02T07:02:48;23.00;;;9.70;;
13404;SDS011;6773;51.192;7.024;2023-02-02T07:05:14;21.17;;;9.73;;
13404;SDS011;6773;51.192;7.024;2023-02-02T07:07:39;24.87;;;10.47;;
13404;SDS011;6773;51.192;7.024;2023-02-02T07:10:05;27.63;;;9.80;;
13404;SDS011;6773;51.192;7.024;2023-02-02T07:12:31;24.33;;;9.43;;
13404;SDS011;6773;51.192;7.024;2023-02-02T07:14:57;27.13;;;11.80;;
13404;SDS011;6773;51.192;7.024;2023-02-02T07:17:23;22.33;;;9.70;;
13404;SDS011;6773;51.192;7.024;2023-02-02T07:19:49;30.33;;;11.13;;
13404;SDS011;6773;51.192;7.024;2023-02-02T07:22:14;23.33;;;10.53;;
13404;SDS011;6773;51.192;7.024;2023-02-02T07:24:40;20.43;;;10.57;;
13404;SDS011;6773;51.192;7.024;2023-02-02T07:27:06;27.03;;;10.70;;
13404;SDS011;6773;51.192;7.024;2023-02-02T07:29:32;22.30;;;10.77;;
13404;SDS011;6773;51.192;7.024;2023-02-02T07:31:57;20.50;;;11.80;;
13404;SDS011;6773;51.192;7.024;2023-02-02T07:34:23;29.57;;;10.97;;
13404;SDS011;6773;51.192;7.024;2023-02-02T07:36:49;22.03;;;12.40;;
13404;SDS011;6773;51.192;7.024;2023-02-02T07:39:14;21.33;;;9.30;;
13404;SDS011;6773;51.192;7.024;2023-02-02T07:41:40;24.33;;;11.43;;
13404;SDS011;6773;51.192;7.024;2023-02-02T07:44:14;22.30;;;12.07;;
13404;SDS011;6773;51.192;7.024;2023-02-02T07:46:43;29.27;;;11.87;;
13404;SDS011;6773;51.192;7.024;2023-02-02T07:49:14;30.87;;;12.23;;
13404;SDS011;6773;51.192;7.024;2023-02-02T07:51:41;22.97;;;11.33;;
13404;SDS011;6773;51.192;7.024;2023-02-02T07:54:07;25.90;;;12.20;;
13404;SDS011;6773;51.192;7.024;2023-02-02T07:56:33;19.53;;;9.63;;
13404;SDS011;6773;51.192;7.024;2023-02-02T07:59:00;27.87;;;10.37;;
13404;SDS011;6773;51.192;7.024;2023-02-02T08:01:26;25.00;;;11.87;;
13404;SDS011;6773;51.192;7.024;2023-02-02T08:03:53;22.63;;;11.83;;
13404;SDS011;6773;51.192;7.024;2023-02-02T08:06:21;31.97;;;13.60;;
13404;SDS011;6773;51.192;7.024;2023-02-02T08:08:48;29.53;;;10.87;;
13404;SDS011;6773;51.192;7.024;2023-02-02T08:11:16;23.90;;;12.10;;
13404;SDS011;6773;51.192;7.024;2023-02-02T08:13:43;32.70;;;11.73;;
13404;SDS011;6773;51.192;7.024;2023-02-02T08:16:09;21.33;;;11.00;;
13404;SDS011;6773;51.192;7.024;2023-02-02T08:18:36;30.10;;;13.43;;
13404;SDS011;6773;51.192;7.024;2023-02-02T08:21:03;33.53;;;14.57;;
13404;SDS011;6773;51.192;7.024;2023-02-02T08:23:30;24.60;;;11.90;;
13404;SDS011;6773;51.192;7.024;2023-02-02T08:26:06;27.93;;;13.53;;
13404;SDS011;6773;51.192;7.024;2023-02-02T08:28:36;32.27;;;14.13;;
13404;SDS011;6773;51.192;7.024;2023-02-02T08:31:06;20.93;;;10.00;;
13404;SDS011;6773;51.192;7.024;2023-02-02T08:33:40;29.33;;;14.57;;
13404;SDS011;6773;51.192;7.024;2023-02-02T08:36:12;27.03;;;14.80;;
13404;SDS011;6773;51.192;7.024;2023-02-02T08:38:40;31.90;;;14.57;;
13404;SDS011;6773;51.192;7.024;2023-02-02T08:41:06;29.67;;;16.37;;
13404;SDS011;6773;51.192;7.024;2023-02-02T08:43:33;37.50;;;16.77;;
13404;SDS011;6773;51.192;7.024;2023-02-02T08:45:59;33.90;;;15.40;;
13404;SDS011;6773;51.192;7.024;2023-02-02T08:48:25;23.97;;;13.37;;
13404;SDS011;6773;51.192;7.024;2023-02-02T08:50:54;32.53;;;14.70;;
13404;SDS011;6773;51.192;7.024;2023-02-02T08:53:21;28.87;;;15.17;;
13404;SDS011;6773;51.192;7.024;2023-02-02T08:55:47;30.53;;;11.83;;
13404;SDS011;6773;51.192;7.024;2023-02-02T08:58:21;29.17;;;16.40;;
13404;SDS011;6773;51.192;7.024;2023-02-02T09:00:46;29.90;;;14.37;;
13404;SDS011;6773;51.192;7.024;2023-02-02T09:03:12;30.57;;;15.37;;
13404;SDS011;6773;51.192;7.024;2023-02-02T09:05:38;26.10;;;14.00;;
13404;SDS011;6773;51.192;7.024;2023-02-02T09:08:04;27.77;;;14.83;;
13404;SDS011;6773;51.192;7.024;2023-02-02T09:10:30;33.60;;;14.70;;
13404;SDS011;6773;51.192;7.024;2023-02-02T09:12:56;36.13;;;15.13;;
13404;SDS011;6773;51.192;7.024;2023-02-02T09:15:22;35.63;;;15.97;;
13404;SDS011;6773;51.192;7.024;2023-02-02T09:17:48;32.93;;;16.57;;
13404;SDS011;6773;51.192;7.024;2023-02-02T09:20:13;34.43;;;14.63;;
13404;SDS011;6773;51.192;7.024;2023-02-02T09:22:39;35.13;;;13.67;;
13404;SDS011;6773;51.192;7.024;2023-02-02T09:25:05;31.67;;;14.03;;
13404;SDS011;6773;51.192;7.024;2023-02-02T09:27:35;24.27;;;12.07;;
13404;SDS011;6773;51.192;7.024;2023-02-02T09:30:01;26.70;;;14.40;;
13404;SDS011;6773;51.192;7.024;2023-02-02T09:32:27;28.50;;;13.47;;
13404;SDS011;6773;51.192;7.024;2023-02-02T09:34:52;30.60;;;15.17;;
13404;SDS011;6773;51.192;7.024;2023-02-02T09:37:18;39.57;;;15.77;;
13404;SDS011;6773;51.192;7.024;2023-02-02T09:39:44;23.90;;;11.17;;
13404;SDS011;6773;51.192;7.024;2023-02-02T09:42:20;31.47;;;14.27;;
13404;SDS011;6773;51.192;7.024;2023-02-02T09:45:21;24.30;;;12.67;;
13404;SDS011;6773;51.192;7.024;2023-02-02T09:47:56;30.23;;;15.37;;
13404;SDS011;6773;51.192;7.024;2023-02-02T09:50:48;42.20;;;15.97;;
13404;SDS011;6773;51.192;7.024;2023-02-02T09:53:22;27.93;;;15.63;;
13404;SDS011;6773;51.192;7.024;2023-02-02T09:55:57;30.60;;;14.77;;
13404;SDS011;6773;51.192;7.024;2023-02-02T09:58:27;25.97;;;14.17;;
13404;SDS011;6773;51.192;7.024;2023-02-02T10:01:00;33.87;;;15.80;;
13404;SDS011;6773;51.192;7.024;2023-02-02T10:06:23;40.07;;;17.33;;
13404;SDS011;6773;51.192;7.024;2023-02-02T10:09:05;32.70;;;14.77;;
13404;SDS011;6773;51.192;7.024;2023-02-02T10:11:52;24.67;;;11.57;;
13404;SDS011;6773;51.192;7.024;2023-02-02T10:14:33;39.00;;;16.93;;
13404;SDS011;6773;51.192;7.024;2023-02-02T10:18:08;34.30;;;16.70;;
13404;SDS011;6773;51.192;7.024;2023-02-02T10:23:08;22.33;;;12.27;;
13404;SDS011;6773;51.192;7.024;2023-02-02T10:25:44;38.03;;;17.93;;
13404;SDS011;6773;51.192;7.024;2023-02-02T10:32:00;30.83;;;16.43;;
13404;SDS011;6773;51.192;7.024;2023-02-02T10:34:12;32.20;;;15.23;;
13404;SDS011;6773;51.192;7.024;2023-02-02T10:36:55;33.23;;;17.77;;
13404;SDS011;6773;51.192;7.024;2023-02-02T10:45:29;36.10;;;16.73;;
13404;SDS011;6773;51.192;7.024;2023-02-02T10:47:55;30.17;;;15.20;;
13404;SDS011;6773;51.192;7.024;2023-02-02T10:50:21;25.30;;;14.60;;
13404;SDS011;6773;51.192;7.024;2023-02-02T10:52:48;18.33;;;9.93;;
13404;SDS011;6773;51.192;7.024;2023-02-02T10:55:20;27.83;;;14.77;;
13404;SDS011;6773;51.192;7.024;2023-02-02T10:58:03;35.87;;;15.73;;
13404;SDS011;6773;51.192;7.024;2023-02-02T11:00:45;32.17;;;15.97;;
13404;SDS011;6773;51.192;7.024;2023-02-02T11:03:23;36.13;;;15.70;;
13404;SDS011;6773;51.192;7.024;2023-02-02T11:05:52;36.63;;;17.10;;
13404;SDS011;6773;51.192;7.024;2023-02-02T11:08:37;25.93;;;13.47;;
13404;SDS011;6773;51.192;7.024;2023-02-02T11:13:59;23.63;;;12.20;;
13404;SDS011;6773;51.192;7.024;2023-02-02T11:16:32;27.77;;;13.77;;
13404;SDS011;6773;51.192;7.024;2023-02-02T11:19:20;25.20;;;12.03;;
13404;SDS011;6773;51.192;7.024;2023-02-02T11:21:48;24.73;;;12.77;;
13404;SDS011;6773;51.192;7.024;2023-02-02T11:26:47;27.20;;;12.40;;
13404;SDS011;6773;51.192;7.024;2023-02-02T11:35:15;33.00;;;10.43;;
13404;SDS011;6773;51.192;7.024;2023-02-02T11:37:56;22.87;;;10.77;;
13404;SDS011;6773;51.192;7.024;2023-02-02T11:42:52;18.97;;;10.13;;
13404;SDS011;6773;51.192;7.024;2023-02-02T11:45:27;15.57;;;8.00;;
13404;SDS011;6773;51.192;7.024;2023-02-02T11:48:05;17.23;;;8.07;;
13404;SDS011;6773;51.192;7.024;2023-02-02T11:50:46;16.87;;;9.97;;
13404;SDS011;6773;51.192;7.024;2023-02-02T11:55:50;12.47;;;6.67;;
13404;SDS011;6773;51.192;7.024;2023-02-02T11:58:17;14.97;;;9.30;;
13404;SDS011;6773;51.192;7.024;2023-02-02T12:00:46;21.83;;;9.30;;
13404;SDS011;6773;51.192;7.024;2023-02-02T12:03:27;17.77;;;8.50;;
13404;SDS011;6773;51.192;7.024;2023-02-02T12:05:57;16.77;;;8.40;;
13404;SDS011;6773;51.192;7.024;2023-02-02T12:08:23;19.17;;;8.27;;
13404;SDS011;6773;51.192;7.024;2023-02-02T12:10:53;18.63;;;9.17;;
13404;SDS011;6773;51.192;7.024;2023-02-02T12:21:20;17.77;;;9.50;;
13404;SDS011;6773;51.192;7.024;2023-02-02T12:34:10;21.27;;;8.70;;
13404;SDS011;6773;51.192;7.024;2023-02-02T12:36:52;17.03;;;8.70;;
13404;SDS011;6773;51.192;7.024;2023-02-02T12:47:24;13.27;;;8.07;;
13404;SDS011;6773;51.192;7.024;2023-02-02T12:52:32;15.37;;;8.50;;
13404;SDS011;6773;51.192;7.024;2023-02-02T13:05:57;13.63;;;6.20;;
13404;SDS011;6773;51.192;7.024;2023-02-02T13:08:27;15.67;;;8.17;;
13404;SDS011;6773;51.192;7.024;2023-02-02T13:11:05;12.77;;;6.23;;
13404;SDS011;6773;51.192;7.024;2023-02-02T13:13:53;13.73;;;6.97;;
13404;SDS011;6773;51.192;7.024;2023-02-02T13:16:47;17.77;;;7.57;;
13404;SDS011;6773;51.192;7.024;2023-02-02T13:22:05;12.80;;;6.83;;
13404;SDS011;6773;51.192;7.024;2023-02-02T13:24:35;11.43;;;7.93;;
13404;SDS011;6773;51.192;7.024;2023-02-02T13:27:06;14.47;;;7.27;;
13404;SDS011;6773;51.192;7.024;2023-02-02T13:32:35;19.87;;;8.13;;
13404;SDS011;6773;51.192;7.024;2023-02-02T13:46:14;14.23;;;9.93;;
13404;SDS011;6773;51.192;7.024;2023-02-02T13:49:07;23.27;;;10.57;;
13404;SDS011;6773;51.192;7.024;2023-02-02T13:51:47;16.97;;;10.77;;
13404;SDS011;6773;51.192;7.024;2023-02-02T13:59:58;18.70;;;9.57;;
13404;SDS011;6773;51.192;7.024;2023-02-02T14:02:38;20.57;;;11.73;;
13404;SDS011;6773;51.192;7.024;2023-02-02T14:05:06;19.87;;;11.93;;
13404;SDS011;6773;51.192;7.024;2023-02-02T14:07:42;17.83;;;12.33;;
13404;SDS011;6773;51.192;7.024;2023-02-02T14:10:26;17.70;;;10.03;;
13404;SDS011;6773;51.192;7.024;2023-02-02T14:13:03;25.20;;;12.03;;
13404;SDS011;6773;51.192;7.024;2023-02-02T14:15:58;31.30;;;14.23;;
13404;SDS011;6773;51.192;7.024;2023-02-02T14:23:58;33.87;;;17.20;;
13404;SDS011;6773;51.192;7.024;2023-02-02T14:34:50;22.33;;;12.70;;
13404;SDS011;6773;51.192;7.024;2023-02-02T14:45:30;27.77;;;12.97;;
13404;SDS011;6773;51.192;7.024;2023-02-02T14:50:54;26.97;;;14.47;;
13404;SDS011;6773;51.192;7.024;2023-02-02T14:53:31;29.07;;;14.30;;
13404;SDS011;6773;51.192;7.024;2023-02-02T14:56:07;26.43;;;13.43;;
13404;SDS011;6773;51.192;7.024;2023-02-02T15:33:47;19.27;;;12.00;;
13404;SDS011;6773;51.192;7.024;2023-02-02T15:36:17;16.90;;;10.00;;
13404;SDS011;6773;51.192;7.024;2023-02-02T15:38:52;20.77;;;11.73;;
13404;SDS011;6773;51.192;7.024;2023-02-02T15:41:22;19.97;;;11.73;;
13404;SDS011;6773;51.192;7.024;2023-02-02T15:44:00;16.23;;;11.40;;
13404;SDS011;6773;51.192;7.024;2023-02-02T15:46:27;17.53;;;11.57;;
13404;SDS011;6773;51.192;7.024;2023-02-02T15:51:51;16.77;;;11.73;;
13404;SDS011;6773;51.192;7.024;2023-02-02T15:56:47;16.80;;;9.43;;
13404;SDS011;6773;51.192;7.024;2023-02-02T15:59:16;20.60;;;12.40;;
13404;SDS011;6773;51.192;7.024;2023-02-02T16:01:49;20.67;;;13.27;;
13404;SDS011;6773;51.192;7.024;2023-02-02T16:04:22;21.40;;;12.00;;
13404;SDS011;6773;51.192;7.024;2023-02-02T16:06:52;22.07;;;11.70;;
13404;SDS011;6773;51.192;7.024;2023-02-02T16:09:26;20.17;;;12.47;;
13404;SDS011;6773;51.192;7.024;2023-02-02T16:11:56;16.80;;;10.80;;
13404;SDS011;6773;51.192;7.024;2023-02-02T16:14:22;24.30;;;14.43;;
13404;SDS011;6773;51.192;7.024;2023-02-02T16:16:48;21.20;;;13.57;;
13404;SDS011;6773;51.192;7.024;2023-02-02T16:19:15;21.13;;;13.77;;
13404;SDS011;6773;51.192;7.024;2023-02-02T16:21:46;25.93;;;15.37;;
13404;SDS011;6773;51.192;7.024;2023-02-02T16:24:21;19.63;;;13.77;;
13404;SDS011;6773;51.192;7.024;2023-02-02T16:26:50;25.23;;;15.03;;
13404;SDS011;6773;51.192;7.024;2023-02-02T16:29:18;25.93;;;17.50;;
13404;SDS011;6773;51.192;7.024;2023-02-02T16:31:44;30.80;;;15.90;;
13404;SDS011;6773;51.192;7.024;2023-02-02T16:34:20;28.30;;;15.90;;
13404;SDS011;6773;51.192;7.024;2023-02-02T16:37:04;28.50;;;16.90;;
13404;SDS011;6773;51.192;7.024;2023-02-02T16:39:41;27.70;;;16.73;;
13404;SDS011;6773;51.192;7.024;2023-02-02T16:42:19;27.70;;;16.43;;
13404;SDS011;6773;51.192;7.024;2023-02-02T16:44:50;28.43;;;17.57;;
13404;SDS011;6773;51.192;7.024;2023-02-02T16:52:18;27.30;;;19.10;;
13404;SDS011;6773;51.192;7.024;2023-02-02T16:54:55;33.20;;;19.57;;
13404;SDS011;6773;51.192;7.024;2023-02-02T16:57:30;36.37;;;19.23;;
13404;SDS011;6773;51.192;7.024;2023-02-02T16:59:57;32.87;;;18.33;;
13404;SDS011;6773;51.192;7.024;2023-02-02T17:02:36;37.30;;;20.57;;
13404;SDS011;6773;51.192;7.024;2023-02-02T17:07:44;29.87;;;17.83;;
13404;SDS011;6773;51.192;7.024;2023-02-02T17:10:25;44.57;;;19.73;;
13404;SDS011;6773;51.192;7.024;2023-02-02T17:12:55;38.97;;;23.43;;
13404;SDS011;6773;51.192;7.024;2023-02-02T17:17:52;37.50;;;22.50;;
13404;SDS011;6773;51.192;7.024;2023-02-02T17:20:18;39.53;;;24.63;;
13404;SDS011;6773;51.192;7.024;2023-02-02T17:22:52;42.90;;;23.33;;
13404;SDS011;6773;51.192;7.024;2023-02-02T17:25:25;36.03;;;23.70;;
13404;SDS011;6773;51.192;7.024;2023-02-02T17:28:10;43.20;;;24.07;;
13404;SDS011;6773;51.192;7.024;2023-02-02T17:30:39;39.30;;;23.63;;
13404;SDS011;6773;51.192;7.024;2023-02-02T17:33:13;40.87;;;23.10;;
13404;SDS011;6773;51.192;7.024;2023-02-02T17:35:40;42.87;;;23.20;;
13404;SDS011;6773;51.192;7.024;2023-02-02T17:38:07;44.90;;;25.03;;
13404;SDS011;6773;51.192;7.024;2023-02-02T17:40:33;39.07;;;22.20;;
13404;SDS011;6773;51.192;7.024;2023-02-02T17:42:59;46.73;;;26.50;;
13404;SDS011;6773;51.192;7.024;2023-02-02T17:45:30;41.40;;;25.07;;
13404;SDS011;6773;51.192;7.024;2023-02-02T17:47:57;45.67;;;25.97;;
13404;SDS011;6773;51.192;7.024;2023-02-02T17:50:24;41.27;;;25.63;;
13404;SDS011;6773;51.192;7.024;2023-02-02T17:52:50;46.43;;;24.57;;
13404;SDS011;6773;51.192;7.024;2023-02-02T17:55:58;44.27;;;25.03;;
13404;SDS011;6773;51.192;7.024;2023-02-02T17:58:06;47.33;;;25.70;;
13404;SDS011;6773;51.192;7.024;2023-02-02T18:00:32;41.53;;;24.17;;
13404;SDS011;6773;51.192;7.024;2023-02-02T18:03:10;42.33;;;24.20;;
13404;SDS011;6773;51.192;7.024;2023-02-02T18:05:38;43.83;;;25.23;;
13404;SDS011;6773;51.192;7.024;2023-02-02T18:08:04;42.80;;;24.20;;
13404;SDS011;6773;51.192;7.024;2023-02-02T18:10:30;48.43;;;28.03;;
13404;SDS011;6773;51.192;7.024;2023-02-02T18:12:56;43.20;;;24.10;;